createdAt,value
2019-05-15T00:00:32.664Z,5.20
2019-05-15T00:01:33.749Z,5.19
2019-05-15T00:02:35.147Z,5.15
2019-05-15T00:03:38.854Z,5.17
2019-05-15T00:04:38.322Z,5.12
2019-05-15T00:05:39.459Z,5.19
2019-05-15T00:06:40.666Z,5.17
2019-05-15T00:07:42.070Z,5.17
2019-05-15T00:08:43.480Z,5.22
2019-05-15T00:09:44.890Z,5.14
2019-05-15T00:10:48.373Z,5.17
2019-05-15T00:11:48.180Z,5.12
2019-05-15T00:12:49.030Z,5.17
2019-05-15T00:13:50.429Z,5.05
2019-05-15T00:14:51.843Z,5.08
2019-05-15T00:15:53.254Z,5.08
2019-05-15T00:16:54.653Z,5.08
2019-05-15T00:17:57.799Z,5.09
2019-05-15T00:18:58.985Z,5.06
2019-05-15T00:19:58.791Z,4.97
2019-05-15T00:21:00.183Z,4.97
2019-05-15T00:22:01.595Z,4.99
2019-05-15T00:23:02.987Z,5.01
2019-05-15T00:24:04.424Z,4.97
2019-05-15T00:25:05.841Z,4.99
2019-05-15T00:26:08.985Z,4.94
2019-05-15T00:27:08.630Z,4.93
2019-05-15T00:28:10.029Z,5.02
2019-05-15T00:29:15.816Z,4.94
2019-05-15T00:30:12.806Z,4.99
2019-05-15T00:31:14.204Z,4.88
2019-05-15T00:32:15.600Z,5.01
2019-05-15T00:33:19.156Z,4.99
2019-05-15T00:34:18.450Z,4.99
2019-05-15T00:35:19.739Z,5.01
2019-05-15T00:36:21.143Z,4.93
2019-05-15T00:37:22.531Z,4.94
2019-05-15T00:38:23.925Z,4.93
2019-05-15T00:39:25.316Z,4.94
2019-05-15T00:40:28.773Z,4.96
2019-05-15T00:41:28.046Z,4.99
2019-05-15T00:42:29.435Z,4.96
2019-05-15T00:43:30.815Z,4.96
2019-05-15T00:44:32.207Z,4.90
2019-05-15T00:45:33.599Z,4.86
2019-05-15T00:46:34.980Z,4.86
2019-05-15T00:47:36.371Z,4.79
2019-05-15T00:48:39.494Z,4.79
2019-05-15T00:49:39.108Z,4.79
2019-05-15T00:50:40.490Z,4.80
2019-05-15T00:51:41.876Z,4.80
2019-05-15T00:52:43.260Z,4.80
2019-05-15T00:53:44.650Z,4.71
2019-05-15T00:54:48.244Z,4.83
2019-05-15T00:55:48.572Z,4.65
2019-05-15T00:56:48.718Z,4.74
2019-05-15T00:57:50.117Z,4.72
2019-05-15T00:58:51.504Z,4.72
2019-05-15T00:59:52.885Z,4.79
2019-05-15T01:00:54.277Z,4.69
2019-05-15T01:01:55.662Z,4.71
2019-05-15T01:02:57.824Z,4.67
2019-05-15T01:03:58.625Z,4.77
2019-05-15T01:04:59.743Z,4.80
2019-05-15T01:06:01.119Z,4.71
2019-05-15T01:07:02.510Z,4.65
2019-05-15T01:08:03.909Z,4.75
2019-05-15T01:09:05.294Z,4.75
2019-05-15T01:10:06.672Z,4.65
2019-05-15T01:11:09.177Z,4.74
2019-05-15T01:12:09.408Z,4.77
2019-05-15T01:13:10.802Z,4.77
2019-05-15T01:14:12.328Z,4.77
2019-05-15T01:15:13.532Z,4.65
2019-05-15T01:16:14.918Z,4.62
2019-05-15T01:17:18.341Z,4.71
2019-05-15T01:18:18.753Z,4.74
2019-05-15T01:19:19.022Z,4.68
2019-05-15T01:20:20.446Z,4.75
2019-05-15T01:21:21.834Z,4.68
2019-05-15T01:22:23.222Z,4.71
2019-05-15T01:23:24.611Z,4.71
2019-05-15T01:24:28.121Z,4.65
2019-05-15T01:25:28.047Z,4.59
2019-05-15T01:26:28.695Z,4.61
2019-05-15T01:27:30.085Z,4.57
2019-05-15T01:28:31.471Z,4.54
2019-05-15T01:29:41.995Z,4.54
2019-05-15T01:30:34.195Z,4.61
2019-05-15T01:31:37.894Z,4.61
2019-05-15T01:32:39.121Z,4.54
2019-05-15T01:33:39.010Z,4.50
2019-05-15T01:34:39.615Z,4.51
2019-05-15T01:35:40.993Z,4.50
2019-05-15T01:36:42.383Z,4.51
2019-05-15T01:37:43.787Z,4.56
2019-05-15T01:38:45.177Z,4.44
2019-05-15T01:39:48.415Z,4.51
2019-05-15T01:40:48.471Z,4.56
2019-05-15T01:41:49.656Z,4.46
2019-05-15T01:42:50.591Z,4.57
2019-05-15T01:43:51.969Z,4.39
2019-05-15T01:44:53.356Z,4.34
2019-05-15T01:45:54.736Z,4.49
2019-05-15T01:46:56.123Z,4.42
2019-05-15T01:47:58.585Z,4.46
2019-05-15T01:48:58.845Z,4.39
2019-05-15T01:50:00.227Z,4.43
2019-05-15T01:51:01.614Z,4.36
2019-05-15T01:52:02.995Z,4.34
2019-05-15T01:53:04.385Z,4.26
2019-05-15T01:54:05.764Z,4.28
2019-05-15T01:55:08.833Z,4.44
2019-05-15T01:56:08.659Z,4.32
2019-05-15T01:57:09.834Z,4.26
2019-05-15T01:58:11.213Z,4.20
2019-05-15T01:59:12.595Z,4.25
2019-05-15T02:00:13.989Z,4.16
2019-05-15T02:01:15.369Z,4.10
2019-05-15T02:02:18.574Z,4.11
2019-05-15T02:03:18.407Z,4.11
2019-05-15T02:04:19.699Z,4.16
2019-05-15T02:05:20.823Z,4.10
2019-05-15T02:06:22.214Z,4.16
2019-05-15T02:07:23.606Z,4.10
2019-05-15T02:08:24.988Z,4.11
2019-05-15T02:09:27.941Z,4.08
2019-05-15T02:10:29.194Z,4.04
2019-05-15T02:11:29.070Z,4.14
2019-05-15T02:12:30.460Z,4.14
2019-05-15T02:13:31.863Z,4.14
2019-05-15T02:14:33.230Z,4.10
2019-05-15T02:15:34.611Z,4.07
2019-05-15T02:16:35.996Z,4.06
2019-05-15T02:17:39.103Z,4.16
2019-05-15T02:18:39.114Z,4.07
2019-05-15T02:19:40.103Z,4.07
2019-05-15T02:20:41.496Z,4.10
2019-05-15T02:21:42.891Z,4.02
2019-05-15T02:22:44.275Z,4.02
2019-05-15T02:23:48.021Z,3.99
2019-05-15T02:24:48.247Z,4.00
2019-05-15T02:25:48.358Z,4.04
2019-05-15T02:26:49.741Z,3.96
2019-05-15T02:27:51.133Z,3.92
2019-05-15T02:28:52.519Z,3.99
2019-05-15T02:30:11.410Z,3.92
2019-05-15T02:30:55.246Z,3.88
2019-05-15T02:31:59.247Z,3.95
2019-05-15T02:32:58.958Z,3.93
2019-05-15T02:33:59.335Z,3.84
2019-05-15T02:35:00.722Z,3.84
2019-05-15T02:36:02.102Z,3.89
2019-05-15T02:37:03.487Z,3.95
2019-05-15T02:38:04.872Z,3.99
2019-05-15T02:39:08.682Z,3.92
2019-05-15T02:40:09.938Z,3.84
2019-05-15T02:41:09.880Z,3.88
2019-05-15T02:42:10.303Z,3.84
2019-05-15T02:43:11.693Z,3.75
2019-05-15T02:44:13.073Z,3.77
2019-05-15T02:45:14.465Z,3.80
2019-05-15T02:46:19.155Z,3.80
2019-05-15T02:47:19.686Z,3.77
2019-05-15T02:48:19.998Z,3.80
2019-05-15T02:49:20.527Z,3.77
2019-05-15T02:50:21.908Z,3.86
2019-05-15T02:51:23.298Z,3.89
2019-05-15T02:52:24.706Z,3.92
2019-05-15T02:53:26.083Z,3.81
2019-05-15T02:54:30.003Z,3.96
2019-05-15T02:55:29.711Z,3.90
2019-05-15T02:56:30.182Z,3.93
2019-05-15T02:57:31.561Z,3.95
2019-05-15T02:58:32.944Z,3.95
2019-05-15T02:59:34.336Z,3.88
2019-05-15T03:00:45.996Z,3.86
2019-05-15T03:01:40.002Z,3.92
2019-05-15T03:02:41.152Z,3.96
2019-05-15T03:03:39.799Z,3.92
2019-05-15T03:04:41.181Z,3.89
2019-05-15T03:05:42.648Z,3.96
2019-05-15T03:06:44.026Z,3.93
2019-05-15T03:07:45.411Z,3.89
2019-05-15T03:08:49.197Z,3.96
2019-05-15T03:09:49.694Z,4.04
2019-05-15T03:10:49.944Z,4.04
2019-05-15T03:11:50.853Z,4.06
2019-05-15T03:12:52.247Z,4.04
2019-05-15T03:13:53.630Z,4.06
2019-05-15T03:14:55.004Z,4.06
2019-05-15T03:15:59.470Z,4.06
2019-05-15T03:16:59.636Z,4.06
2019-05-15T03:18:00.374Z,4.06
2019-05-15T03:19:00.445Z,4.04
2019-05-15T03:20:01.851Z,4.11
2019-05-15T03:21:03.265Z,4.10
2019-05-15T03:22:04.653Z,4.11
2019-05-15T03:23:09.055Z,4.13
2019-05-15T03:24:09.853Z,4.16
2019-05-15T03:25:10.502Z,4.26
2019-05-15T03:26:10.125Z,4.24
2019-05-15T03:27:11.497Z,4.28
2019-05-15T03:28:12.890Z,4.25
2019-05-15T03:29:14.283Z,4.25
2019-05-15T03:30:21.023Z,4.21
2019-05-15T03:31:35.066Z,4.26
2019-05-15T03:32:33.510Z,4.32
2019-05-15T03:33:27.076Z,4.34
2019-05-15T03:34:28.399Z,4.29
2019-05-15T03:35:22.983Z,4.32
2019-05-15T03:36:24.612Z,4.35
2019-05-15T03:37:25.151Z,4.29
2019-05-15T03:38:29.595Z,4.28
2019-05-15T03:39:29.626Z,4.36
2019-05-15T03:40:29.943Z,4.36
2019-05-15T03:41:30.585Z,4.38
2019-05-15T03:42:31.977Z,4.43
2019-05-15T03:43:33.358Z,4.39
2019-05-15T03:44:34.746Z,4.44
2019-05-15T03:45:39.989Z,4.38
2019-05-15T03:46:39.911Z,4.42
2019-05-15T03:47:40.177Z,4.51
2019-05-15T03:48:40.593Z,4.54
2019-05-15T03:49:41.560Z,4.51
2019-05-15T03:50:42.943Z,4.51
2019-05-15T03:51:45.977Z,4.71
2019-05-15T03:52:45.690Z,4.77
2019-05-15T03:53:49.454Z,4.80
2019-05-15T03:54:49.603Z,4.88
2019-05-15T03:55:49.804Z,4.97
2019-05-15T03:56:51.200Z,4.99
2019-05-15T03:57:52.584Z,5.06
2019-05-15T03:58:53.984Z,5.17
2019-05-15T03:59:55.367Z,5.20
2019-05-15T04:00:59.869Z,5.24
2019-05-15T04:01:59.913Z,5.27
2019-05-15T04:03:00.343Z,5.29
2019-05-15T04:04:01.729Z,5.38
2019-05-15T04:05:03.129Z,5.48
2019-05-15T04:06:04.518Z,5.56
2019-05-15T04:07:09.005Z,5.66
2019-05-15T04:08:10.391Z,5.66
2019-05-15T04:09:09.578Z,5.66
2019-05-15T04:10:10.368Z,5.78
2019-05-15T04:11:11.334Z,5.78
2019-05-15T04:12:12.728Z,5.80
2019-05-15T04:13:14.116Z,5.83
2019-05-15T04:14:15.518Z,5.88
2019-05-15T04:15:18.743Z,5.95
2019-05-15T04:16:19.262Z,6.05
2019-05-15T04:17:20.183Z,6.08
2019-05-15T04:18:21.549Z,6.08
2019-05-15T04:19:22.937Z,6.25
2019-05-15T04:20:24.327Z,6.39
2019-05-15T04:21:25.727Z,6.32
2019-05-15T04:22:29.090Z,6.48
2019-05-15T04:23:30.071Z,6.39
2019-05-15T04:24:30.110Z,6.50
2019-05-15T04:25:31.194Z,6.53
2019-05-15T04:26:32.546Z,6.71
2019-05-15T04:27:33.930Z,6.64
2019-05-15T04:28:35.323Z,6.78
2019-05-15T04:29:39.500Z,6.86
2019-05-15T04:30:39.288Z,6.91
2019-05-15T04:31:51.653Z,6.96
2019-05-15T04:32:40.775Z,7.09
2019-05-15T04:33:42.175Z,7.05
2019-05-15T04:34:43.570Z,7.23
2019-05-15T04:35:44.960Z,7.26
2019-05-15T04:36:49.468Z,7.14
2019-05-15T04:37:49.541Z,7.32
2019-05-15T04:38:49.755Z,7.32
2019-05-15T04:39:50.412Z,7.33
2019-05-15T04:40:51.797Z,7.41
2019-05-15T04:41:53.180Z,7.50
2019-05-15T04:42:54.575Z,7.57
2019-05-15T04:43:55.968Z,7.60
2019-05-15T04:44:59.477Z,7.66
2019-05-15T04:46:02.615Z,7.82
2019-05-15T04:47:00.064Z,7.82
2019-05-15T04:48:01.465Z,7.88
2019-05-15T04:49:02.873Z,7.89
2019-05-15T04:50:04.259Z,7.94
2019-05-15T04:51:05.649Z,7.96
2019-05-15T04:52:09.760Z,8.06
2019-05-15T04:53:10.609Z,8.04
2019-05-15T04:54:09.912Z,8.04
2019-05-15T04:55:11.125Z,8.09
2019-05-15T04:56:12.519Z,8.14
2019-05-15T04:57:13.908Z,8.17
2019-05-15T04:58:15.303Z,8.24
2019-05-15T04:59:19.273Z,8.21
2019-05-15T05:00:19.889Z,8.37
2019-05-15T05:01:19.941Z,8.31
2019-05-15T05:02:26.571Z,8.32
2019-05-15T05:03:22.118Z,8.34
2019-05-15T05:04:23.526Z,8.42
2019-05-15T05:05:24.916Z,8.43
2019-05-15T05:06:29.233Z,8.43
2019-05-15T05:07:29.592Z,8.57
2019-05-15T05:08:29.288Z,8.49
2019-05-15T05:09:30.365Z,8.55
2019-05-15T05:10:31.763Z,8.61
2019-05-15T05:11:33.151Z,8.57
2019-05-15T05:12:34.548Z,8.57
2019-05-15T05:13:35.942Z,8.65
2019-05-15T05:14:39.157Z,8.61
2019-05-15T05:15:38.868Z,8.71
2019-05-15T05:16:40.050Z,8.67
2019-05-15T05:17:41.443Z,8.67
2019-05-15T05:18:42.841Z,8.76
2019-05-15T05:19:44.229Z,8.70
2019-05-15T05:20:45.624Z,8.65
2019-05-15T05:21:47.917Z,8.70
2019-05-15T05:22:48.414Z,8.71
2019-05-15T05:23:49.763Z,8.70
2019-05-15T05:24:51.159Z,8.47
2019-05-15T05:25:52.549Z,8.57
2019-05-15T05:26:53.946Z,8.54
2019-05-15T05:27:55.337Z,8.63
2019-05-15T05:29:01.323Z,8.71
2019-05-15T05:29:59.048Z,8.75
2019-05-15T05:31:00.464Z,8.82
2019-05-15T05:32:01.852Z,8.89
2019-05-15T05:33:03.246Z,8.83
2019-05-15T05:34:04.646Z,8.85
2019-05-15T05:35:08.197Z,8.96
2019-05-15T05:36:07.960Z,8.80
2019-05-15T05:37:08.778Z,8.83
2019-05-15T05:38:10.200Z,8.91
2019-05-15T05:39:13.309Z,9.10
2019-05-15T05:40:12.948Z,9.31
2019-05-15T05:41:14.350Z,9.40
2019-05-15T05:42:15.730Z,9.44
2019-05-15T05:43:18.387Z,9.45
2019-05-15T05:44:18.928Z,9.49
2019-05-15T05:45:19.827Z,9.50
2019-05-15T05:46:21.249Z,9.48
2019-05-15T05:47:22.634Z,9.50
2019-05-15T05:48:24.051Z,9.52
2019-05-15T05:49:25.443Z,9.74
2019-05-15T05:50:28.803Z,10.34
2019-05-15T05:51:28.288Z,11.20
2019-05-15T05:52:29.577Z,11.87
2019-05-15T05:53:30.969Z,12.16
2019-05-15T05:54:32.385Z,12.01
2019-05-15T05:55:33.773Z,11.81
2019-05-15T05:56:35.161Z,11.54
2019-05-15T05:57:38.124Z,11.27
2019-05-15T05:58:38.966Z,11.16
2019-05-15T05:59:39.309Z,11.01
2019-05-15T06:00:40.721Z,10.83
2019-05-15T06:01:44.194Z,10.69
2019-05-15T06:02:47.582Z,10.58
2019-05-15T06:03:44.876Z,10.69
2019-05-15T06:04:47.839Z,10.68
2019-05-15T06:05:49.475Z,10.62
2019-05-15T06:07:05.555Z,10.58
2019-05-15T06:07:50.371Z,10.58
2019-05-15T06:08:51.746Z,10.58
2019-05-15T06:09:53.146Z,10.58
2019-05-15T06:10:54.538Z,10.58
2019-05-15T06:11:58.168Z,10.72
2019-05-15T06:12:58.714Z,10.84
2019-05-15T06:13:58.685Z,10.90
2019-05-15T06:15:00.989Z,10.90
2019-05-15T06:16:02.397Z,10.86
2019-05-15T06:17:03.815Z,11.03
2019-05-15T06:18:05.203Z,11.11
2019-05-15T06:19:08.282Z,11.19
2019-05-15T06:20:08.101Z,11.31
2019-05-15T06:21:09.438Z,11.53
2019-05-15T06:22:10.681Z,11.64
2019-05-15T06:23:12.076Z,11.70
2019-05-15T06:24:13.513Z,11.82
2019-05-15T06:25:14.908Z,11.98
2019-05-15T06:26:16.300Z,12.31
2019-05-15T06:27:19.826Z,12.46
2019-05-15T06:28:19.510Z,12.66
2019-05-15T06:29:20.484Z,12.79
2019-05-15T06:30:26.705Z,13.04
2019-05-15T06:31:23.278Z,13.07
2019-05-15T06:32:24.739Z,13.27
2019-05-15T06:33:27.756Z,13.36
2019-05-15T06:34:28.596Z,13.47
2019-05-15T06:35:31.271Z,13.57
2019-05-15T06:36:30.341Z,13.63
2019-05-15T06:37:31.734Z,13.73
2019-05-15T06:38:33.139Z,13.76
2019-05-15T06:39:34.544Z,13.71
2019-05-15T06:40:35.970Z,13.69
2019-05-15T06:41:39.014Z,13.72
2019-05-15T06:42:39.371Z,13.90
2019-05-15T06:43:40.096Z,14.06
2019-05-15T06:44:41.495Z,14.23
2019-05-15T06:45:42.911Z,14.31
2019-05-15T06:46:44.309Z,14.42
2019-05-15T06:47:45.719Z,14.54
2019-05-15T06:48:48.613Z,14.64
2019-05-15T06:49:48.635Z,14.66
2019-05-15T06:50:49.861Z,14.67
2019-05-15T06:51:51.270Z,14.48
2019-05-15T06:52:52.665Z,14.44
2019-05-15T06:53:54.072Z,14.41
2019-05-15T06:54:55.469Z,14.42
2019-05-15T06:55:58.495Z,14.56
2019-05-15T06:56:58.347Z,14.53
2019-05-15T06:57:59.616Z,14.71
2019-05-15T06:59:01.015Z,14.74
2019-05-15T07:00:02.414Z,14.79
2019-05-15T07:01:03.816Z,14.79
2019-05-15T07:02:05.242Z,14.86
2019-05-15T07:03:18.117Z,14.90
2019-05-15T07:04:08.414Z,15.00
2019-05-15T07:05:09.352Z,15.07
2019-05-15T07:06:10.752Z,15.19
2019-05-15T07:07:12.149Z,15.16
2019-05-15T07:08:13.554Z,15.20
2019-05-15T07:09:14.983Z,15.33
2019-05-15T07:10:18.862Z,15.28
2019-05-15T07:11:19.135Z,15.35
2019-05-15T07:12:19.109Z,15.41
2019-05-15T07:13:20.509Z,15.37
2019-05-15T07:14:21.915Z,15.48
2019-05-15T07:15:23.346Z,15.59
2019-05-15T07:16:24.739Z,15.55
2019-05-15T07:17:28.586Z,15.62
2019-05-15T07:18:28.382Z,15.74
2019-05-15T07:19:28.863Z,15.96
2019-05-15T07:20:30.278Z,15.88
2019-05-15T07:21:31.669Z,15.78
2019-05-15T07:22:33.062Z,15.91
2019-05-15T07:23:34.467Z,15.81
2019-05-15T07:24:38.213Z,15.89
2019-05-15T07:25:39.010Z,15.91
2019-05-15T07:26:39.136Z,16.03
2019-05-15T07:27:39.980Z,15.99
2019-05-15T07:28:41.390Z,16.17
2019-05-15T07:29:42.792Z,16.03
2019-05-15T07:30:44.186Z,16.03
2019-05-15T07:31:47.710Z,16.06
2019-05-15T07:32:48.733Z,16.04
2019-05-15T07:33:49.208Z,16.13
2019-05-15T07:34:49.685Z,16.27
2019-05-15T07:35:51.080Z,16.18
2019-05-15T07:36:52.486Z,16.25
2019-05-15T07:37:53.904Z,16.08
2019-05-15T07:38:57.809Z,16.10
2019-05-15T07:39:58.864Z,16.10
2019-05-15T07:41:03.853Z,16.07
2019-05-15T07:41:59.409Z,15.95
2019-05-15T07:43:00.809Z,15.96
2019-05-15T07:44:02.209Z,16.03
2019-05-15T07:45:03.610Z,16.01
2019-05-15T07:46:05.031Z,16.17
2019-05-15T07:47:08.735Z,16.06
2019-05-15T07:48:09.165Z,16.22
2019-05-15T07:49:09.289Z,16.17
2019-05-15T07:50:10.560Z,16.22
2019-05-15T07:51:11.990Z,16.30
2019-05-15T07:52:13.376Z,16.25
2019-05-15T07:53:14.784Z,16.26
2019-05-15T07:54:18.042Z,16.22
2019-05-15T07:55:18.480Z,16.55
2019-05-15T07:56:18.897Z,16.59
2019-05-15T07:57:20.300Z,16.65
2019-05-15T07:58:22.070Z,16.55
2019-05-15T07:59:23.174Z,16.29
2019-05-15T08:00:24.586Z,16.27
2019-05-15T08:01:25.989Z,16.29
2019-05-15T08:02:28.426Z,16.29
2019-05-15T08:03:29.220Z,16.25
2019-05-15T08:04:32.900Z,16.25
2019-05-15T08:05:31.485Z,16.17
2019-05-15T08:06:32.889Z,16.22
2019-05-15T08:07:34.295Z,16.17
2019-05-15T08:08:35.695Z,16.22
2019-05-15T08:09:38.909Z,16.23
2019-05-15T08:10:39.651Z,16.25
2019-05-15T08:11:39.833Z,16.30
2019-05-15T08:12:41.243Z,16.44
2019-05-15T08:13:42.645Z,16.37
2019-05-15T08:14:47.042Z,16.33
2019-05-15T08:15:45.405Z,16.40
2019-05-15T08:16:48.568Z,16.45
2019-05-15T08:18:03.255Z,16.36
2019-05-15T08:18:49.525Z,16.40
2019-05-15T08:19:50.931Z,16.50
2019-05-15T08:20:52.346Z,16.45
2019-05-15T08:21:53.746Z,16.54
2019-05-15T08:22:55.147Z,16.60
2019-05-15T08:23:58.867Z,16.69
2019-05-15T08:24:59.123Z,16.67
2019-05-15T08:25:59.283Z,16.73
2019-05-15T08:27:00.694Z,16.95
2019-05-15T08:28:02.104Z,17.22
2019-05-15T08:29:03.508Z,16.92
2019-05-15T08:30:04.915Z,17.07
2019-05-15T08:31:09.293Z,17.15
2019-05-15T08:32:08.434Z,17.20
2019-05-15T08:33:09.068Z,17.32
2019-05-15T08:34:15.600Z,17.18
2019-05-15T08:35:12.772Z,17.21
2019-05-15T08:36:13.189Z,17.05
2019-05-15T08:37:14.595Z,17.22
2019-05-15T08:38:17.982Z,17.18
2019-05-15T08:39:18.957Z,17.42
2019-05-15T08:40:18.718Z,17.42
2019-05-15T08:41:20.132Z,17.43
2019-05-15T08:42:21.529Z,17.54
2019-05-15T08:43:22.925Z,17.51
2019-05-15T08:44:24.334Z,17.55
2019-05-15T08:45:28.139Z,17.53
2019-05-15T08:46:27.976Z,17.36
2019-05-15T08:47:29.670Z,17.47
2019-05-15T08:48:32.543Z,17.46
2019-05-15T08:49:31.267Z,17.54
2019-05-15T08:50:32.672Z,17.53
2019-05-15T08:51:34.078Z,17.47
2019-05-15T08:52:35.480Z,17.38
2019-05-15T08:53:37.970Z,17.33
2019-05-15T08:54:38.410Z,17.36
2019-05-15T08:55:39.610Z,17.30
2019-05-15T08:56:41.009Z,17.35
2019-05-15T08:57:42.426Z,17.24
2019-05-15T08:58:43.821Z,17.30
2019-05-15T08:59:45.231Z,17.35
2019-05-15T09:00:51.375Z,17.28
2019-05-15T09:01:48.971Z,17.45
2019-05-15T09:02:49.386Z,17.36
2019-05-15T09:03:50.790Z,17.49
2019-05-15T09:04:52.197Z,17.46
2019-05-15T09:05:53.604Z,17.46
2019-05-15T09:06:55.033Z,17.35
2019-05-15T09:07:57.979Z,17.30
2019-05-15T09:08:58.491Z,17.28
2019-05-15T09:09:59.192Z,17.17
2019-05-15T09:11:00.582Z,17.07
2019-05-15T09:12:01.993Z,16.92
2019-05-15T09:13:03.401Z,17.02
2019-05-15T09:14:04.804Z,17.10
2019-05-15T09:15:07.736Z,17.20
2019-05-15T09:16:08.352Z,17.28
2019-05-15T09:17:08.923Z,17.10
2019-05-15T09:18:16.040Z,17.07
2019-05-15T09:19:11.724Z,17.07
2019-05-15T09:20:13.135Z,17.07
2019-05-15T09:21:14.538Z,17.22
2019-05-15T09:22:18.530Z,17.07
2019-05-15T09:23:19.240Z,16.95
2019-05-15T09:24:19.903Z,16.88
2019-05-15T09:25:20.062Z,16.99
2019-05-15T09:26:21.476Z,16.99
2019-05-15T09:27:22.894Z,17.28
2019-05-15T09:28:24.297Z,17.38
2019-05-15T09:29:25.698Z,17.36
2019-05-15T09:30:28.613Z,17.35
2019-05-15T09:31:28.626Z,17.54
2019-05-15T09:32:29.855Z,17.55
2019-05-15T09:33:31.272Z,17.81
2019-05-15T09:34:46.879Z,17.73
2019-05-15T09:35:34.039Z,17.70
2019-05-15T09:36:35.450Z,17.68
2019-05-15T09:37:38.618Z,17.76
2019-05-15T09:38:39.056Z,17.65
2019-05-15T09:39:40.265Z,17.86
2019-05-15T09:40:46.156Z,17.87
2019-05-15T09:41:43.023Z,17.86
2019-05-15T09:42:44.425Z,17.87
2019-05-15T09:43:45.833Z,18.01
2019-05-15T09:44:48.633Z,18.16
2019-05-15T09:45:49.222Z,18.05
2019-05-15T09:46:50.061Z,18.19
2019-05-15T09:47:51.489Z,18.38
2019-05-15T09:48:52.973Z,18.42
2019-05-15T09:49:54.501Z,18.41
2019-05-15T09:50:58.525Z,18.50
2019-05-15T09:51:58.601Z,18.35
2019-05-15T09:52:59.018Z,18.11
2019-05-15T09:54:00.178Z,18.10
2019-05-15T09:55:02.106Z,18.05
2019-05-15T09:56:03.385Z,18.07
2019-05-15T09:57:04.797Z,17.98
2019-05-15T09:58:08.091Z,18.01
2019-05-15T09:59:08.809Z,17.80
2019-05-15T10:00:09.723Z,17.63
2019-05-15T10:01:11.121Z,17.77
2019-05-15T10:02:12.587Z,17.84
2019-05-15T10:03:14.010Z,18.01
2019-05-15T10:04:15.438Z,18.02
2019-05-15T10:05:18.515Z,18.09
2019-05-15T10:06:20.553Z,18.13
2019-05-15T10:07:19.681Z,18.21
2019-05-15T10:08:21.511Z,18.23
2019-05-15T10:09:22.450Z,18.20
2019-05-15T10:10:23.988Z,18.14
2019-05-15T10:11:25.398Z,18.29
2019-05-15T10:12:33.894Z,18.21
2019-05-15T10:13:28.951Z,18.26
2019-05-15T10:14:29.762Z,18.17
2019-05-15T10:15:30.959Z,18.17
2019-05-15T10:16:32.392Z,18.21
2019-05-15T10:17:33.822Z,18.01
2019-05-15T10:18:35.248Z,18.14
2019-05-15T10:19:36.658Z,17.92
2019-05-15T10:20:38.060Z,17.74
2019-05-15T10:21:39.965Z,17.73
2019-05-15T10:22:40.877Z,17.51
2019-05-15T10:23:42.280Z,17.57
2019-05-15T10:24:43.701Z,17.57
2019-05-15T10:25:45.095Z,17.51
2019-05-15T10:26:48.884Z,17.40
2019-05-15T10:27:48.791Z,17.39
2019-05-15T10:28:49.683Z,17.32
2019-05-15T10:29:50.727Z,17.35
2019-05-15T10:30:52.173Z,17.30
2019-05-15T10:31:53.580Z,17.27
2019-05-15T10:32:54.985Z,17.38
2019-05-15T10:33:58.161Z,17.10
2019-05-15T10:34:58.624Z,16.99
2019-05-15T10:35:59.275Z,17.07
2019-05-15T10:37:00.496Z,17.20
2019-05-15T10:38:01.900Z,17.38
2019-05-15T10:39:03.335Z,17.58
2019-05-15T10:40:04.722Z,17.55
2019-05-15T10:41:13.897Z,17.53
2019-05-15T10:42:08.198Z,17.47
2019-05-15T10:43:09.237Z,17.36
2019-05-15T10:44:10.228Z,17.27
2019-05-15T10:45:11.645Z,17.35
2019-05-15T10:46:13.746Z,17.21
2019-05-15T10:47:14.414Z,17.17
2019-05-15T10:48:18.718Z,17.25
2019-05-15T10:49:18.928Z,17.35
2019-05-15T10:50:19.038Z,17.46
2019-05-15T10:51:19.988Z,17.60
2019-05-15T10:52:21.510Z,17.51
2019-05-15T10:53:22.896Z,17.28
2019-05-15T10:54:24.306Z,17.25
2019-05-15T10:55:25.713Z,17.07
2019-05-15T10:56:28.988Z,17.17
2019-05-15T10:57:28.507Z,17.05
2019-05-15T10:58:29.913Z,17.09
2019-05-15T10:59:31.322Z,17.05
2019-05-15T11:00:32.727Z,16.95
2019-05-15T11:01:34.137Z,16.91
2019-05-15T11:02:35.552Z,16.99
2019-05-15T11:03:39.716Z,17.00
2019-05-15T11:04:39.290Z,16.87
2019-05-15T11:05:45.328Z,16.69
2019-05-15T11:06:41.033Z,16.82
2019-05-15T11:07:42.442Z,16.96
2019-05-15T11:08:43.854Z,16.96
2019-05-15T11:09:45.279Z,17.14
2019-05-15T11:10:49.206Z,17.28
2019-05-15T11:11:51.201Z,17.36
2019-05-15T11:12:49.388Z,17.51
2019-05-15T11:13:50.801Z,17.66
2019-05-15T11:14:52.208Z,17.79
2019-05-15T11:15:53.616Z,17.96
2019-05-15T11:16:55.045Z,18.11
2019-05-15T11:17:58.305Z,18.11
2019-05-15T11:18:58.560Z,17.74
2019-05-15T11:19:59.182Z,17.65
2019-05-15T11:21:00.588Z,17.68
2019-05-15T11:22:02.020Z,17.74
2019-05-15T11:23:03.411Z,17.71
2019-05-15T11:24:04.810Z,17.81
2019-05-15T11:25:09.259Z,17.76
2019-05-15T11:26:08.772Z,17.53
2019-05-15T11:27:09.981Z,17.55
2019-05-15T11:28:10.341Z,17.76
2019-05-15T11:29:11.749Z,17.83
2019-05-15T11:30:13.150Z,18.01
2019-05-15T11:31:14.559Z,18.23
2019-05-15T11:32:15.964Z,18.20
2019-05-15T11:33:18.850Z,18.20
2019-05-15T11:34:18.823Z,18.34
2019-05-15T11:35:20.126Z,18.23
2019-05-15T11:36:21.508Z,18.19
2019-05-15T11:37:22.931Z,18.20
2019-05-15T11:38:24.332Z,17.96
2019-05-15T11:39:25.741Z,17.98
2019-05-15T11:40:28.404Z,18.10
2019-05-15T11:41:29.565Z,18.13
2019-05-15T11:42:29.914Z,18.01
2019-05-15T11:43:31.318Z,18.05
2019-05-15T11:44:32.731Z,18.05
2019-05-15T11:45:34.142Z,17.99
2019-05-15T11:46:35.541Z,17.89
2019-05-15T11:47:39.099Z,18.01
2019-05-15T11:48:39.146Z,18.09
2019-05-15T11:49:39.671Z,17.89
2019-05-15T11:50:41.078Z,17.84
2019-05-15T11:51:42.503Z,17.71
2019-05-15T11:52:43.919Z,18.09
2019-05-15T11:53:45.323Z,18.20
2019-05-15T11:54:49.191Z,18.23
2019-05-15T11:55:48.268Z,18.01
2019-05-15T11:56:49.484Z,18.05
2019-05-15T11:57:52.316Z,17.68
2019-05-15T11:58:52.251Z,17.70
2019-05-15T11:59:55.361Z,17.51
2019-05-15T12:00:55.067Z,17.57
2019-05-15T12:01:58.028Z,17.43
2019-05-15T12:02:58.414Z,17.21
2019-05-15T12:03:59.255Z,16.90
2019-05-15T12:05:00.629Z,16.81
2019-05-15T12:06:14.789Z,16.84
2019-05-15T12:07:03.411Z,16.88
2019-05-15T12:08:04.805Z,16.81
2019-05-15T12:09:06.226Z,16.80
2019-05-15T12:10:10.522Z,16.84
2019-05-15T12:11:11.828Z,16.72
2019-05-15T12:12:10.406Z,16.81
2019-05-15T12:13:11.804Z,16.82
2019-05-15T12:14:13.204Z,16.82
2019-05-15T12:15:14.599Z,17.00
2019-05-15T12:16:16.002Z,16.92
2019-05-15T12:17:18.959Z,16.77
2019-05-15T12:18:18.771Z,16.62
2019-05-15T12:19:20.190Z,16.57
2019-05-15T12:20:21.584Z,16.44
2019-05-15T12:21:22.981Z,16.27
2019-05-15T12:22:24.386Z,16.27
2019-05-15T12:23:25.797Z,16.30
2019-05-15T12:24:32.762Z,16.26
2019-05-15T12:25:31.622Z,16.17
2019-05-15T12:26:29.904Z,16.08
2019-05-15T12:27:31.312Z,16.17
2019-05-15T12:28:32.702Z,16.25
2019-05-15T12:29:34.113Z,16.36
2019-05-15T12:30:35.517Z,16.36
2019-05-15T12:31:38.897Z,16.23
2019-05-15T12:32:40.262Z,16.26
2019-05-15T12:33:39.657Z,16.22
2019-05-15T12:34:41.057Z,16.32
2019-05-15T12:35:42.479Z,16.29
2019-05-15T12:36:52.039Z,16.33
2019-05-15T12:37:45.255Z,16.18
2019-05-15T12:38:50.033Z,15.99
2019-05-15T12:39:49.279Z,15.84
2019-05-15T13:00:19.379Z,15.62
2019-05-15T13:01:21.894Z,15.60
2019-05-15T13:02:22.190Z,15.51
2019-05-15T13:03:23.581Z,15.46
2019-05-15T13:04:24.982Z,15.43
2019-05-15T13:05:28.529Z,15.38
2019-05-15T13:06:28.553Z,15.38
2019-05-15T13:07:29.135Z,15.30
2019-05-15T13:08:30.565Z,15.27
2019-05-15T13:09:31.972Z,15.33
2019-05-15T13:10:33.387Z,15.18
2019-05-15T13:11:34.782Z,15.12
2019-05-15T13:12:38.800Z,15.04
2019-05-15T13:13:37.740Z,15.04
2019-05-15T13:14:39.078Z,15.01
2019-05-15T13:15:41.283Z,15.05
2019-05-15T13:16:41.772Z,14.91
2019-05-15T13:17:43.163Z,15.03
2019-05-15T13:18:44.560Z,15.00
2019-05-15T13:19:48.089Z,15.04
2019-05-15T13:20:48.989Z,15.12
2019-05-15T13:21:51.222Z,15.12
2019-05-15T13:23:51.673Z,15.19
2019-05-15T13:24:53.075Z,15.28
2019-05-15T13:25:54.477Z,15.18
2019-05-15T13:26:55.875Z,15.18
2019-05-15T13:27:58.080Z,15.13
2019-05-15T13:28:58.681Z,15.20
2019-05-15T13:30:00.100Z,15.15
2019-05-15T13:31:01.489Z,15.22
2019-05-15T13:32:02.899Z,15.22
2019-05-15T13:33:04.327Z,15.22
2019-05-15T13:34:07.959Z,15.20
2019-05-15T13:35:09.505Z,15.07
2019-05-15T13:36:08.918Z,15.03
2019-05-15T13:37:09.859Z,14.95
2019-05-15T13:38:11.256Z,14.85
2019-05-15T13:39:12.654Z,14.91
2019-05-15T13:40:14.058Z,14.79
2019-05-15T13:41:15.463Z,14.85
2019-05-15T13:42:18.108Z,14.79